createdAt,value
2022-10-19T00:01:13.544Z,102206.25
2022-10-19T00:03:41.129Z,102215.19
2022-10-19T00:06:28.945Z,102208.38
2022-10-19T00:08:58.521Z,102196.94
2022-10-19T00:11:26.226Z,102205.19
2022-10-19T00:13:54.843Z,102199.06
2022-10-19T00:16:23.131Z,102194.03
2022-10-19T00:18:49.891Z,102200.19
2022-10-19T00:21:18.838Z,102197.38
2022-10-19T00:23:45.934Z,102193.19
2022-10-19T00:26:13.956Z,102192.53
2022-10-19T00:28:41.306Z,102197.69
2022-10-19T00:31:14.153Z,102188.22
2022-10-19T00:33:49.559Z,102181.09
2022-10-19T00:36:16.375Z,102169.13
2022-10-19T00:38:43.395Z,102160.59
2022-10-19T00:41:10.430Z,102152.84
2022-10-19T00:43:54.660Z,102141.66
2022-10-19T00:46:22.173Z,102151.28
2022-10-19T00:51:39.535Z,102142.94
2022-10-19T00:54:07.741Z,102139.63
2022-10-19T00:56:35.646Z,102148.44
2022-10-19T00:59:05.907Z,102134.09
2022-10-19T01:01:34.159Z,102152.09
2022-10-19T01:04:01.972Z,102147.09
2022-10-19T01:06:32.231Z,102149.19
2022-10-19T01:08:58.948Z,102146.84
2022-10-19T01:11:54.998Z,102146.84
2022-10-19T01:14:21.747Z,102133.75
2022-10-19T01:16:56.604Z,102134.84
2022-10-19T01:20:00.226Z,102134.47
2022-10-19T01:22:48.360Z,102132.97
2022-10-19T01:25:33.660Z,102139.53
2022-10-19T01:28:00.378Z,102129.47
2022-10-19T01:30:50.908Z,102122.38
2022-10-19T01:33:43.359Z,102122.38
2022-10-19T01:36:37.511Z,102120.81
2022-10-19T01:39:30.399Z,102121.66
2022-10-19T01:42:02.974Z,102126.00
2022-10-19T01:44:40.857Z,102126.69
2022-10-19T01:47:15.904Z,102125.00
2022-10-19T01:49:49.749Z,102128.50
2022-10-19T01:52:20.880Z,102126.81
2022-10-19T01:54:54.062Z,102110.09
2022-10-19T01:57:28.372Z,102115.25
2022-10-19T01:59:57.476Z,102102.84
2022-10-19T02:02:27.143Z,102099.34
2022-10-19T02:04:57.586Z,102102.16
2022-10-19T02:07:25.487Z,102102.16
2022-10-19T02:09:52.291Z,102099.34
2022-10-19T02:12:20.294Z,102093.09
2022-10-19T02:14:52.309Z,102086.94
2022-10-19T02:17:27.503Z,102090.44
2022-10-19T02:19:55.390Z,102079.00
2022-10-19T02:22:22.379Z,102079.00
2022-10-19T02:24:49.155Z,102066.59
2022-10-19T02:27:16.450Z,102073.72
2022-10-19T02:29:43.512Z,102078.00
2022-10-19T02:32:11.348Z,102070.22
2022-10-19T02:34:39.598Z,102072.88
2022-10-19T02:37:07.312Z,102055.16
2022-10-19T02:39:34.343Z,102062.09
2022-10-19T02:42:07.203Z,102053.19
2022-10-19T02:44:36.665Z,102045.53
2022-10-19T02:47:10.856Z,102042.75
2022-10-19T02:49:38.989Z,102031.59
2022-10-19T02:52:08.692Z,102024.50
2022-10-19T02:54:36.228Z,102025.34
2022-10-19T02:57:09.978Z,102022.69
2022-10-19T02:59:36.706Z,102019.06
2022-10-19T03:02:03.457Z,102009.44
2022-10-19T03:04:30.203Z,102005.13
2022-10-19T03:06:56.966Z,102006.66
2022-10-19T03:09:23.782Z,102002.31
2022-10-19T03:11:50.496Z,101996.88
2022-10-19T03:14:17.222Z,101988.78
2022-10-19T03:16:44.026Z,101988.63
2022-10-19T03:19:10.773Z,101984.88
2022-10-19T03:21:37.624Z,101976.59
2022-10-19T03:24:04.599Z,101988.69
2022-10-19T03:26:31.365Z,101984.94
2022-10-19T03:28:58.134Z,101997.19
2022-10-19T03:31:25.878Z,101996.22
2022-10-19T03:33:52.930Z,101989.91
2022-10-19T03:36:23.015Z,101983.63
2022-10-19T03:38:52.062Z,101987.50
2022-10-19T03:41:20.102Z,101977.59
2022-10-19T03:43:47.208Z,101992.34
2022-10-19T03:46:14.123Z,101978.81
2022-10-19T03:48:40.891Z,101974.16
2022-10-19T03:51:10.597Z,101963.44
2022-10-19T03:53:37.693Z,101962.28
2022-10-19T03:56:13.125Z,101954.03
2022-10-19T03:58:41.403Z,101952.88
2022-10-19T04:01:11.698Z,101951.91
2022-10-19T04:03:39.010Z,101947.56
2022-10-19T04:06:10.591Z,101951.06
2022-10-19T04:08:37.381Z,101951.91
2022-10-19T04:11:08.035Z,101959.72
2022-10-19T04:13:39.464Z,101958.88
2022-10-19T04:16:06.629Z,101958.88
2022-10-19T04:18:33.822Z,101955.25
2022-10-19T04:21:05.412Z,101965.66
2022-10-19T04:23:36.310Z,101963.00
2022-10-19T04:26:07.709Z,101965.53
2022-10-19T04:28:35.119Z,101961.88
2022-10-19T04:31:03.685Z,101966.22
2022-10-19T04:33:30.507Z,101955.75
2022-10-19T04:36:05.461Z,101949.47
2022-10-19T04:38:32.931Z,101955.59
2022-10-19T04:41:11.399Z,101951.16
2022-10-19T04:43:38.310Z,101929.94
2022-10-19T04:46:10.877Z,101932.59
2022-10-19T04:48:39.048Z,101930.75
2022-10-19T04:51:06.816Z,101928.09
2022-10-19T04:53:34.768Z,101932.59
2022-10-19T04:56:06.166Z,101934.91
2022-10-19T04:58:32.903Z,101924.31
2022-10-19T05:00:59.829Z,101932.94
2022-10-19T05:03:26.594Z,101914.69
2022-10-19T05:05:53.385Z,101916.69
2022-10-19T05:08:20.091Z,101918.50
2022-10-19T05:10:47.775Z,101924.63
2022-10-19T05:13:14.933Z,101921.16
2022-10-19T05:15:41.744Z,101920.81
2022-10-19T05:18:08.475Z,101912.72
2022-10-19T05:20:35.221Z,101919.84
2022-10-19T05:23:06.225Z,101908.41
2022-10-19T05:25:34.248Z,101906.59
2022-10-19T05:28:01.014Z,101901.94
2022-10-19T05:30:27.785Z,101898.63
2022-10-19T05:32:54.527Z,101894.69
2022-10-19T05:35:22.664Z,101893.69
2022-10-19T05:37:54.578Z,101895.38
2022-10-19T05:40:21.492Z,101890.72
2022-10-19T05:42:48.202Z,101882.75
2022-10-19T05:45:15.016Z,101877.47
2022-10-19T05:47:41.766Z,101867.69
2022-10-19T05:50:08.780Z,101865.88
2022-10-19T05:52:35.502Z,101882.63
2022-10-19T05:55:02.269Z,101882.94
2022-10-19T05:57:29.021Z,101875.00
2022-10-19T05:59:58.545Z,101872.34
2022-10-19T06:02:25.304Z,101872.16
2022-10-19T06:04:52.145Z,101872.69
2022-10-19T06:07:18.900Z,101870.03
2022-10-19T06:09:46.269Z,101871.03
2022-10-19T06:12:14.841Z,101865.25
2022-10-19T06:14:43.250Z,101866.09
2022-10-19T06:17:10.916Z,101867.75
2022-10-19T06:19:37.889Z,101867.75
2022-10-19T06:22:04.687Z,101873.72
2022-10-19T06:24:31.721Z,101872.03
2022-10-19T06:27:09.894Z,101875.38
2022-10-19T06:29:36.650Z,101868.41
2022-10-19T06:32:03.483Z,101866.59
2022-10-19T06:34:30.388Z,101859.97
2022-10-19T06:37:03.762Z,101858.84
2022-10-19T06:39:30.615Z,101863.31
2022-10-19T06:41:57.364Z,101872.09
2022-10-19T06:44:24.095Z,101863.31
2022-10-19T06:46:50.805Z,101865.81
2022-10-19T06:49:17.778Z,101856.69
2022-10-19T06:51:44.605Z,101847.59
2022-10-19T06:54:11.803Z,101837.16
2022-10-19T06:56:39.080Z,101836.31
2022-10-19T06:59:06.086Z,101832.50
2022-10-19T07:01:32.962Z,101833.19
2022-10-19T07:03:59.759Z,101836.50
2022-10-19T07:06:28.254Z,101832.50
2022-10-19T07:08:55.018Z,101823.56
2022-10-19T07:11:22.789Z,101827.03
2022-10-19T07:13:50.228Z,101818.44
2022-10-19T07:16:21.262Z,101818.56
2022-10-19T07:18:50.109Z,101815.78
2022-10-19T07:21:17.721Z,101812.94
2022-10-19T07:23:46.228Z,101817.13
2022-10-19T07:26:18.950Z,101804.69
2022-10-19T07:28:47.763Z,101808.97
2022-10-19T07:31:23.439Z,101803.25
2022-10-19T07:33:57.932Z,101809.53
2022-10-19T07:36:25.832Z,101811.47
2022-10-19T07:38:52.765Z,101806.72
2022-10-19T07:41:22.068Z,101807.38
2022-10-19T07:43:49.749Z,101802.91
2022-10-19T07:46:19.604Z,101811.69
2022-10-19T07:48:47.032Z,101816.66
2022-10-19T07:51:16.274Z,101808.41
2022-10-19T07:53:43.875Z,101797.47
2022-10-19T07:56:15.560Z,101804.28
2022-10-19T07:58:42.975Z,101788.34
2022-10-19T08:01:15.547Z,101790.53
2022-10-19T08:04:42.753Z,101798.50
2022-10-19T08:06:29.515Z,101792.00
2022-10-19T08:08:56.509Z,101792.69
2022-10-19T08:11:24.814Z,101792.34
2022-10-19T08:13:52.545Z,101785.06
2022-10-19T08:16:41.547Z,101788.38
2022-10-19T08:19:10.611Z,101780.25
2022-10-19T08:21:38.981Z,101785.91
2022-10-19T08:24:06.700Z,101782.25
2022-10-19T08:26:35.151Z,101784.91
2022-10-19T08:29:03.456Z,101779.44
2022-10-19T08:31:30.605Z,101774.44
2022-10-19T08:33:57.820Z,101762.69
2022-10-19T08:36:26.200Z,101758.84
2022-10-19T08:38:52.959Z,101757.19
2022-10-19T08:41:33.089Z,101761.50
2022-10-19T08:44:13.718Z,101765.84
2022-10-19T08:46:43.301Z,101752.41
2022-10-19T08:49:16.056Z,101765.50
2022-10-19T08:51:43.700Z,101766.00
2022-10-19T08:54:16.842Z,101764.50
2022-10-19T08:57:18.900Z,101757.38
2022-10-19T09:00:03.973Z,101760.69
2022-10-19T09:02:39.784Z,101768.00
2022-10-19T09:05:41.379Z,101757.19
2022-10-19T09:08:15.307Z,101744.25
2022-10-19T09:10:49.130Z,101752.91
2022-10-19T09:14:03.710Z,101750.88
2022-10-19T09:16:27.793Z,101744.44
2022-10-19T09:21:48.821Z,101762.38
2022-10-19T09:24:33.124Z,101756.06
2022-10-19T09:27:22.705Z,101748.72
2022-10-19T09:30:02.733Z,101747.91
2022-10-19T09:32:36.587Z,101741.44
2022-10-19T09:35:14.066Z,101729.81
2022-10-19T09:37:45.220Z,101735.28
2022-10-19T09:40:18.865Z,101744.28
2022-10-19T09:42:45.734Z,101728.66
2022-10-19T09:45:39.713Z,101735.44
2022-10-19T09:48:37.504Z,101717.69
2022-10-19T09:51:12.424Z,101713.88
2022-10-19T09:53:54.522Z,101701.41
2022-10-19T09:56:26.936Z,101710.19
2022-10-19T09:58:59.917Z,101704.56
2022-10-19T10:01:42.996Z,101710.22
2022-10-19T10:04:15.189Z,101719.81
2022-10-19T10:06:44.402Z,101700.69
2022-10-19T10:09:27.998Z,101700.69
2022-10-19T10:11:59.338Z,101694.53
2022-10-19T10:14:30.554Z,101699.19
2022-10-19T10:17:16.372Z,101703.16
2022-10-19T10:20:11.188Z,101714.94
2022-10-19T10:22:38.072Z,101692.03
2022-10-19T10:25:16.957Z,101704.50
2022-10-19T10:27:55.165Z,101700.00
2022-10-19T10:30:21.940Z,101696.00
2022-10-19T10:32:53.199Z,101693.53
2022-10-19T10:35:25.304Z,101700.19
2022-10-19T10:37:53.093Z,101703.97
2022-10-19T10:40:31.239Z,101710.28
2022-10-19T10:43:18.365Z,101721.28
2022-10-19T10:45:49.144Z,101702.31
2022-10-19T10:48:28.733Z,101702.00
2022-10-19T10:50:57.397Z,101694.47
2022-10-19T10:53:35.915Z,101710.28
2022-10-19T10:56:04.951Z,101716.06
2022-10-19T10:59:26.432Z,101703.25
2022-10-19T11:02:17.588Z,101691.63
2022-10-19T11:04:52.417Z,101695.09
2022-10-19T11:07:31.273Z,101683.16
2022-10-19T11:10:02.868Z,101681.66
2022-10-19T11:12:37.748Z,101679.06
2022-10-19T11:15:13.570Z,101668.75
2022-10-19T11:17:57.240Z,101657.28
2022-10-19T11:20:27.924Z,101647.16
2022-10-19T11:23:00.827Z,101633.56
2022-10-19T11:25:44.494Z,101620.72
2022-10-19T11:28:42.406Z,101619.22
2022-10-19T11:31:35.542Z,101625.19
2022-10-19T11:34:37.205Z,101630.97
2022-10-19T11:37:11.286Z,101619.16
2022-10-19T11:39:47.205Z,101621.66
2022-10-19T11:42:31.707Z,101615.97
2022-10-19T11:45:25.774Z,101610.16
2022-10-19T11:48:14.385Z,101600.63
2022-10-19T11:50:54.358Z,101588.44
2022-10-19T11:53:49.226Z,101575.28
2022-10-19T11:56:39.200Z,101566.13
2022-10-19T11:59:45.473Z,101569.78
2022-10-19T12:02:48.073Z,101556.53
2022-10-19T12:05:28.110Z,101548.91
2022-10-19T12:08:13.365Z,101526.50
2022-10-19T12:10:48.227Z,101517.06
2022-10-19T12:13:22.454Z,101511.91
2022-10-19T12:15:55.581Z,101495.59
2022-10-19T12:18:58.403Z,101498.91
2022-10-19T12:21:38.368Z,101488.91
2022-10-19T12:24:16.400Z,101481.88
2022-10-19T12:26:45.654Z,101489.78
2022-10-19T12:29:21.566Z,101482.91
2022-10-19T12:31:50.326Z,101483.69
2022-10-19T12:34:36.132Z,101471.66
2022-10-19T12:37:26.510Z,101458.47
2022-10-19T12:40:24.677Z,101441.66
2022-10-19T12:43:14.389Z,101427.31
2022-10-19T12:46:10.229Z,101428.16
2022-10-19T12:48:39.422Z,101415.88
2022-10-19T12:51:12.118Z,101427.69
2022-10-19T12:53:48.993Z,101418.06
2022-10-19T12:56:20.950Z,101422.09
2022-10-19T12:58:59.917Z,101416.59
2022-10-19T13:01:36.055Z,101420.56
2022-10-19T13:04:08.030Z,101399.09
2022-10-19T13:06:38.645Z,101398.06
2022-10-19T13:09:08.429Z,101399.16
2022-10-19T13:11:36.252Z,101396.16
2022-10-19T13:14:06.429Z,101389.19
2022-10-19T13:16:40.418Z,101371.66
2022-10-19T13:19:13.301Z,101376.59
2022-10-19T13:21:59.780Z,101359.44
2022-10-19T13:24:26.614Z,101360.06
2022-10-19T13:27:08.487Z,101353.13
2022-10-19T13:29:38.993Z,101348.22
2022-10-19T13:32:37.963Z,101338.03
2022-10-19T13:35:31.766Z,101329.41
2022-10-19T13:38:16.788Z,101317.72
2022-10-19T13:40:49.782Z,101319.03
2022-10-19T13:43:38.867Z,101301.00
2022-10-19T13:46:11.524Z,101301.41
2022-10-19T13:48:57.296Z,101296.09
2022-10-19T13:51:42.201Z,101283.94
2022-10-19T13:54:20.979Z,101286.81
2022-10-19T13:56:50.685Z,101279.63
2022-10-19T13:59:36.228Z,101282.50
2022-10-19T14:02:31.332Z,101275.13
2022-10-19T14:05:10.796Z,101274.69
2022-10-19T14:08:03.160Z,101268.38
2022-10-19T14:10:32.796Z,101258.34
2022-10-19T14:13:07.047Z,101254.06
2022-10-19T14:15:35.699Z,101252.75
2022-10-19T14:18:05.809Z,101256.44
2022-10-19T14:20:39.282Z,101270.13
2022-10-19T14:23:20.454Z,101258.28
2022-10-19T14:26:03.580Z,101256.63
2022-10-19T14:28:31.888Z,101254.97
2022-10-19T14:31:11.468Z,101253.97
2022-10-19T14:33:41.203Z,101266.06
2022-10-19T14:36:14.695Z,101261.22
2022-10-19T14:38:46.660Z,101247.91
2022-10-19T14:41:37.492Z,101257.03
2022-10-19T14:44:35.638Z,101256.38
2022-10-19T14:47:24.495Z,101242.53
2022-10-19T14:49:51.556Z,101236.75
2022-10-19T14:52:39.029Z,101229.97
2022-10-19T14:55:16.905Z,101236.22
2022-10-19T14:57:47.770Z,101231.09
2022-10-19T15:00:19.493Z,101226.78
2022-10-19T15:02:54.744Z,101225.94
2022-10-19T15:05:26.172Z,101221.09
2022-10-19T15:07:55.844Z,101209.81
2022-10-19T15:10:32.323Z,101211.63
2022-10-19T15:13:05.026Z,101213.56
2022-10-19T15:15:34.550Z,101206.66
2022-10-19T15:18:01.385Z,101207.47
2022-10-19T15:20:28.265Z,101196.84
2022-10-19T15:22:56.739Z,101209.50
2022-10-19T15:25:25.333Z,101210.50
2022-10-19T15:27:53.874Z,101212.53
2022-10-19T15:30:27.589Z,101211.91
2022-10-19T15:33:15.396Z,101219.06
2022-10-19T15:35:44.716Z,101213.72
2022-10-19T15:38:15.038Z,101198.97
2022-10-19T15:40:43.980Z,101194.66
2022-10-19T15:43:35.621Z,101183.38
2022-10-19T15:46:22.233Z,101180.28
2022-10-19T15:48:55.527Z,101179.84
2022-10-19T15:51:25.194Z,101172.78
2022-10-19T15:53:53.674Z,101155.94
2022-10-19T15:56:22.231Z,101143.44
2022-10-19T15:58:52.819Z,101137.31
2022-10-19T16:01:26.486Z,101123.31
2022-10-19T16:03:58.727Z,101105.50
2022-10-19T16:06:28.546Z,101099.19
2022-10-19T16:08:55.608Z,101093.63
2022-10-19T16:11:23.373Z,101090.31
2022-10-19T16:13:50.363Z,101096.84
2022-10-19T16:16:30.002Z,101101.72
2022-10-19T16:18:57.486Z,101110.69
2022-10-19T16:21:32.207Z,101091.25
2022-10-19T16:23:59.565Z,101090.25
2022-10-19T16:26:26.819Z,101085.13
2022-10-19T16:28:56.637Z,101078.97
2022-10-19T16:31:24.093Z,101071.56
2022-10-19T16:33:51.445Z,101084.41
2022-10-19T16:36:20.425Z,101088.66
2022-10-19T16:38:47.880Z,101071.41
2022-10-19T16:41:15.310Z,101079.19
2022-10-19T16:43:42.288Z,101080.41
2022-10-19T16:46:09.376Z,101080.97
2022-10-19T16:48:37.148Z,101069.69
2022-10-19T16:51:15.470Z,101067.03
2022-10-19T16:53:42.303Z,101064.38
2022-10-19T16:56:12.681Z,101059.88
2022-10-19T16:58:42.081Z,101064.56
2022-10-19T17:01:19.083Z,101056.59
2022-10-19T17:03:47.856Z,101048.81
2022-10-19T17:06:16.189Z,101048.00
2022-10-19T17:09:23.270Z,101047.34
2022-10-19T17:11:33.183Z,101056.03
2022-10-19T17:14:03.187Z,101046.41
2022-10-19T17:16:32.308Z,101040.91
2022-10-19T17:19:00.444Z,101029.13
2022-10-19T17:21:32.906Z,101039.25
2022-10-19T17:24:01.666Z,101039.47
2022-10-19T17:26:31.153Z,101013.06
2022-10-19T17:28:59.192Z,101024.53
2022-10-19T17:31:26.880Z,101033.13
2022-10-19T17:33:54.193Z,101007.59
2022-10-19T17:36:25.491Z,100999.59
2022-10-19T17:38:58.315Z,100998.31
2022-10-19T17:41:25.751Z,100988.97
2022-10-19T17:43:52.988Z,101006.94
2022-10-19T17:46:28.279Z,101027.09
2022-10-19T17:48:56.361Z,101021.16
2022-10-19T17:51:27.531Z,101016.03
2022-10-19T17:53:56.735Z,101017.84
2022-10-19T17:56:23.925Z,101011.72
2022-10-19T17:58:50.952Z,101017.47
2022-10-19T18:01:21.372Z,101002.19
2022-10-19T18:03:49.385Z,100989.53
2022-10-19T18:06:20.869Z,100998.13
2022-10-19T18:08:51.493Z,100988.34
2022-10-19T18:14:16.660Z,100980.19
2022-10-19T18:16:45.971Z,100993.47
2022-10-19T18:19:15.195Z,100994.09
2022-10-19T18:21:43.898Z,100993.09
2022-10-19T18:24:19.548Z,100987.63
2022-10-19T18:26:47.220Z,100990.09
2022-10-19T18:29:18.027Z,100980.28
2022-10-19T18:31:49.249Z,100986.66
2022-10-19T18:34:16.289Z,100985.03
2022-10-19T18:36:43.700Z,100987.50
2022-10-19T18:39:11.995Z,100978.69
2022-10-19T18:41:39.138Z,100981.75
2022-10-19T18:44:07.076Z,100977.25
2022-10-19T18:46:36.337Z,100988.31
2022-10-19T18:49:06.904Z,100984.84
2022-10-19T18:51:33.925Z,100989.78
2022-10-19T18:54:00.719Z,100985.91
2022-10-19T18:56:29.525Z,100976.13
2022-10-19T18:58:57.470Z,100978.19
2022-10-19T19:01:27.010Z,100965.31
2022-10-19T19:03:56.313Z,100951.81
2022-10-19T19:06:26.263Z,100945.47
2022-10-19T19:09:01.202Z,100944.72
2022-10-19T19:11:36.029Z,100938.41
2022-10-19T19:14:22.044Z,100932.69
2022-10-19T19:16:49.156Z,100920.44
2022-10-19T19:19:18.190Z,100911.44
2022-10-19T19:21:45.907Z,100898.97
2022-10-19T19:24:18.054Z,100900.78
2022-10-19T19:26:54.029Z,100925.53
2022-10-19T19:29:22.300Z,100933.97
2022-10-19T19:31:49.941Z,100932.75
2022-10-19T19:34:17.352Z,100919.91
2022-10-19T19:36:48.961Z,100916.47
2022-10-19T19:39:18.920Z,100905.00
2022-10-19T19:41:46.279Z,100907.25
2022-10-19T19:44:13.049Z,100897.25
2022-10-19T19:46:40.117Z,100902.13
2022-10-19T19:49:07.334Z,100903.94
2022-10-19T19:51:35.639Z,100885.34
2022-10-19T19:54:03.631Z,100904.78
2022-10-19T19:56:30.771Z,100924.03
2022-10-19T19:59:00.015Z,100953.69
2022-10-19T20:01:27.193Z,100963.50
2022-10-19T20:03:54.475Z,100944.06
2022-10-19T20:06:25.025Z,100912.81
2022-10-19T20:08:53.334Z,100945.53
2022-10-19T20:11:20.141Z,100948.19
2022-10-19T20:13:47.123Z,100917.94
2022-10-19T20:16:16.801Z,100901.78
2022-10-19T20:18:49.886Z,100905.25
2022-10-19T20:21:18.094Z,100899.56
2022-10-19T20:23:46.837Z,100907.56
2022-10-19T20:26:22.692Z,100895.25
2022-10-19T20:28:50.176Z,100883.81
2022-10-19T20:31:17.307Z,100887.28
2022-10-19T20:33:45.120Z,100888.94
2022-10-19T20:36:22.271Z,100893.44
2022-10-19T20:38:56.932Z,100892.59
2022-10-19T20:41:26.649Z,100879.13
2022-10-19T20:43:54.432Z,100886.88
2022-10-19T20:46:23.516Z,100886.06
2022-10-19T20:48:51.409Z,100894.69
2022-10-19T20:51:25.902Z,100876.88
2022-10-19T20:53:57.623Z,100876.88
2022-10-19T20:56:27.972Z,100860.09
2022-10-19T20:59:00.246Z,100865.59
2022-10-19T21:01:29.469Z,100860.28
2022-10-19T21:03:58.441Z,100859.47
2022-10-19T21:06:27.132Z,100852.97
2022-10-19T21:08:54.227Z,100853.31
2022-10-19T21:11:26.607Z,100841.91
2022-10-19T21:13:55.286Z,100831.25
2022-10-19T21:16:23.347Z,100849.22
2022-10-19T21:18:50.925Z,100855.38
2022-10-19T21:21:23.712Z,100849.22
2022-10-19T21:23:51.726Z,100859.03
2022-10-19T21:26:18.940Z,100861.06
2022-10-19T21:28:53.421Z,100858.41
2022-10-19T21:31:24.329Z,100860.88
2022-10-19T21:33:52.284Z,100859.22
2022-10-19T21:36:21.327Z,100852.06
2022-10-19T21:38:48.978Z,100847.59
2022-10-19T21:41:22.253Z,100836.94
2022-10-19T21:43:52.637Z,100827.13
2022-10-19T21:46:21.346Z,100818.97
2022-10-19T21:48:48.644Z,100821.81
2022-10-19T21:51:48.474Z,100822.25
2022-10-19T21:54:18.687Z,100822.47
2022-10-19T21:56:46.529Z,100818.16
2022-10-19T21:59:13.457Z,100819.81
2022-10-19T22:01:41.498Z,100828.59
2022-10-19T22:04:16.840Z,100825.94
2022-10-19T22:06:44.024Z,100813.66
2022-10-19T22:09:15.280Z,100810.16
2022-10-19T22:11:42.076Z,100809.78
2022-10-19T22:14:11.664Z,100799.13
2022-10-19T22:16:40.119Z,100806.09
2022-10-19T22:19:06.894Z,100809.59
2022-10-19T22:21:35.430Z,100811.22
2022-10-19T22:24:07.230Z,100809.59
2022-10-19T22:26:40.371Z,100805.09
2022-10-19T22:29:07.966Z,100801.41
2022-10-19T22:31:38.351Z,100812.88
2022-10-19T22:34:09.517Z,100805.69
2022-10-19T22:36:36.828Z,100808.16
2022-10-19T22:39:04.876Z,100811.66
2022-10-19T22:42:21.242Z,100807.34
2022-10-19T22:44:47.953Z,100811.66
2022-10-19T22:47:14.756Z,100797.53
2022-10-19T22:49:41.565Z,100795.69
2022-10-19T22:52:08.417Z,100792.22
2022-10-19T22:54:35.283Z,100791.59
2022-10-19T22:57:02.366Z,100795.28
2022-10-19T22:59:29.091Z,100785.66
2022-10-19T23:01:55.873Z,100780.16
2022-10-19T23:04:22.627Z,100776.66
2022-10-19T23:06:49.373Z,100774.00
2022-10-19T23:09:16.079Z,100757.22
2022-10-19T23:11:42.779Z,100742.91
2022-10-19T23:14:09.697Z,100731.44
2022-10-19T23:16:36.506Z,100733.28
2022-10-19T23:19:03.256Z,100732.06
2022-10-19T23:21:30.083Z,100737.38
2022-10-19T23:23:56.780Z,100741.03
2022-10-19T23:26:25.106Z,100725.69
2022-10-19T23:29:19.975Z,100725.31
2022-10-19T23:31:46.722Z,100714.88
2022-10-19T23:34:13.679Z,100714.25
2022-10-19T23:36:40.579Z,100718.75
2022-10-19T23:39:07.884Z,100713.44
2022-10-19T23:41:34.676Z,100715.88
2022-10-19T23:44:01.412Z,100718.16
2022-10-19T23:46:28.295Z,100719.16
2022-10-19T23:48:55.110Z,100713.22
2022-10-19T23:51:22.128Z,100706.88
2022-10-19T23:53:51.141Z,100708.94
2022-10-19T23:56:35.882Z,100704.41
2022-10-19T23:59:02.967Z,100688.47
